TimeMST,TemperatureF,Dew PointF,Humidity,Sea Level PressureIn,VisibilityMPH,Wind Direction,Wind SpeedMPH,Gust SpeedMPH,PrecipitationIn,Events,Conditions,WindDirDegrees,DateUTC
12:15 AM,33.8,26.6,75,29.85,10.0,Calm,Calm,-,N/A,,Clear,0,2012-11-18 07:15:00
12:35 AM,33.8,28.4,81,29.84,10.0,South,3.5,-,N/A,,Clear,190,2012-11-18 07:35:00
12:55 AM,33.8,30.2,87,29.84,10.0,Calm,Calm,-,N/A,,Clear,0,2012-11-18 07:55:00
1:15 AM,32.0,30.2,93,29.83,10.0,Calm,Calm,-,N/A,,Clear,0,2012-11-18 08:15:00
1:35 AM,30.2,26.6,86,29.82,10.0,Calm,Calm,-,N/A,,Clear,0,2012-11-18 08:35:00
1:55 AM,33.8,26.6,75,29.81,10.0,South,3.5,-,N/A,,Clear,170,2012-11-18 08:55:00
2:15 AM,33.8,26.6,75,29.80,10.0,South,5.8,-,N/A,,Clear,180,2012-11-18 09:15:00
2:35 AM,33.8,24.8,70,29.80,10.0,South,3.5,-,N/A,,Clear,170,2012-11-18 09:35:00
2:55 AM,28.4,24.8,86,29.79,10.0,Calm,Calm,-,N/A,,Clear,0,2012-11-18 09:55:00
3:15 AM,28.4,21.2,74,29.78,10.0,East,3.5,-,N/A,,Clear,100,2012-11-18 10:15:00
3:35 AM,26.6,21.2,80,29.77,10.0,Calm,Calm,-,N/A,,Clear,0,2012-11-18 10:35:00
3:55 AM,30.2,26.6,86,29.77,10.0,ENE,3.5,-,N/A,,Clear,70,2012-11-18 10:55:00
4:16 AM,32.0,26.6,80,29.76,10.0,ESE,4.6,-,N/A,,Clear,110,2012-11-18 11:16:00
4:35 AM,30.2,26.6,86,29.76,10.0,Calm,Calm,-,N/A,,Clear,0,2012-11-18 11:35:00
4:55 AM,28.4,21.2,74,29.76,10.0,Calm,Calm,-,N/A,,Clear,0,2012-11-18 11:55:00
5:15 AM,24.8,19.4,80,29.75,10.0,Calm,Calm,-,N/A,,Clear,0,2012-11-18 12:15:00
5:35 AM,28.4,24.8,86,29.75,10.0,Calm,Calm,-,N/A,,Clear,0,2012-11-18 12:35:00
5:55 AM,28.4,26.6,93,29.74,10.0,SE,3.5,-,N/A,,Clear,130,2012-11-18 12:55:00
6:15 AM,28.4,23.0,80,29.74,10.0,Calm,Calm,-,N/A,,Clear,0,2012-11-18 13:15:00
6:35 AM,26.6,23.0,86,29.74,10.0,Calm,Calm,-,N/A,,Clear,0,2012-11-18 13:35:00
6:55 AM,26.6,21.2,80,29.74,10.0,Calm,Calm,-,N/A,,Clear,0,2012-11-18 13:55:00
7:15 AM,24.8,21.2,86,29.74,10.0,Calm,Calm,-,N/A,,Clear,0,2012-11-18 14:15:00
7:35 AM,24.8,21.2,86,29.74,10.0,WNW,3.5,-,N/A,,Clear,300,2012-11-18 14:35:00
7:55 AM,26.6,23.0,86,29.74,10.0,WNW,3.5,-,N/A,,Clear,290,2012-11-18 14:55:00
8:15 AM,28.4,23.0,80,29.74,10.0,Calm,Calm,-,N/A,,Clear,0,2012-11-18 15:15:00
8:35 AM,32.0,26.6,80,29.74,10.0,Calm,Calm,-,N/A,,Clear,0,2012-11-18 15:35:00
8:55 AM,35.6,30.2,81,29.74,10.0,SW,3.5,-,N/A,,Clear,220,2012-11-18 15:55:00
9:55 AM,37.4,28.4,70,29.73,10.0,SSE,4.6,-,N/A,,Clear,150,2012-11-18 16:55:00
10:15 AM,39.2,28.4,65,29.74,10.0,WSW,4.6,-,N/A,,Clear,250,2012-11-18 17:15:00
10:35 AM,42.8,30.2,61,29.74,10.0,Calm,Calm,-,N/A,,Clear,0,2012-11-18 17:35:00
10:55 AM,42.8,30.2,61,29.76,10.0,West,9.2,-,N/A,,Clear,260,2012-11-18 17:55:00
11:15 AM,42.8,30.2,61,29.75,10.0,SSW,5.8,-,N/A,,Clear,210,2012-11-18 18:15:00
11:35 AM,42.8,30.2,61,29.74,10.0,SW,4.6,-,N/A,,Clear,220,2012-11-18 18:35:00
11:55 AM,42.8,32.0,66,29.73,10.0,SW,5.8,-,N/A,,Clear,230,2012-11-18 18:55:00
12:15 PM,42.8,30.2,61,29.74,10.0,SW,8.1,-,N/A,,Clear,230,2012-11-18 19:15:00
12:35 PM,42.8,30.2,61,29.74,10.0,SSW,5.8,-,N/A,,Mostly Cloudy,210,2012-11-18 19:35:00
12:55 PM,42.8,32.0,66,29.74,10.0,SSW,8.1,-,N/A,,Scattered Clouds,200,2012-11-18 19:55:00
1:15 PM,42.8,33.8,70,29.73,10.0,Calm,Calm,-,N/A,,Mostly Cloudy,0,2012-11-18 20:15:00
1:35 PM,42.8,33.8,70,29.73,10.0,SSW,6.9,-,N/A,,Overcast,200,2012-11-18 20:35:00
1:55 PM,42.8,33.8,70,29.75,10.0,SW,12.7,-,N/A,,Overcast,230,2012-11-18 20:55:00
2:15 PM,42.8,33.8,70,29.75,10.0,South,3.5,-,N/A,,Mostly Cloudy,190,2012-11-18 21:15:00
2:35 PM,42.8,33.8,70,29.76,10.0,SW,4.6,-,N/A,,Clear,220,2012-11-18 21:35:00
2:55 PM,42.8,35.6,76,29.77,10.0,SSE,4.6,-,N/A,,Clear,160,2012-11-18 21:55:00
3:35 PM,44.6,33.8,66,29.79,10.0,West,8.1,-,N/A,,Clear,280,2012-11-18 22:35:00
3:55 PM,42.8,33.8,70,29.82,10.0,NW,5.8,-,N/A,,Clear,310,2012-11-18 22:55:00
4:15 PM,42.8,33.8,70,29.83,10.0,NNW,11.5,-,N/A,,Clear,330,2012-11-18 23:15:00
4:35 PM,42.8,32.0,66,29.84,10.0,NNW,13.8,-,N/A,,Clear,330,2012-11-18 23:35:00
4:55 PM,41.0,32.0,70,29.85,10.0,NW,15.0,-,N/A,,Mostly Cloudy,320,2012-11-18 23:55:00
5:15 PM,39.2,30.2,70,29.86,10.0,NNW,12.7,-,N/A,,Overcast,330,2012-11-19 00:15:00
5:35 PM,39.2,30.2,70,29.87,10.0,NNW,8.1,-,N/A,,Mostly Cloudy,340,2012-11-19 00:35:00
5:55 PM,39.2,30.2,70,29.88,10.0,WNW,3.5,-,N/A,,Scattered Clouds,290,2012-11-19 00:55:00
6:15 PM,39.2,30.2,70,29.90,10.0,NW,5.8,-,N/A,,Clear,310,2012-11-19 01:15:00
6:36 PM,37.4,28.4,70,29.90,10.0,WNW,3.5,-,N/A,,Clear,290,2012-11-19 01:36:00
6:55 PM,37.4,28.4,70,29.91,10.0,Calm,Calm,-,N/A,,Clear,0,2012-11-19 01:55:00
7:15 PM,37.4,28.4,70,29.92,10.0,Calm,Calm,-,N/A,,Clear,0,2012-11-19 02:15:00
7:35 PM,35.6,26.6,70,29.93,10.0,WSW,5.8,-,N/A,,Clear,240,2012-11-19 02:35:00
7:55 PM,35.6,28.4,75,29.94,10.0,SSW,5.8,-,N/A,,Clear,200,2012-11-19 02:55:00
8:15 PM,35.6,26.6,70,29.94,10.0,West,5.8,-,N/A,,Scattered Clouds,260,2012-11-19 03:15:00
8:35 PM,35.6,28.4,75,29.96,10.0,WNW,6.9,-,N/A,,Overcast,290,2012-11-19 03:35:00
8:55 PM,35.6,28.4,75,29.96,10.0,West,8.1,-,N/A,,Overcast,270,2012-11-19 03:55:00
9:15 PM,35.6,28.4,75,29.97,10.0,West,4.6,-,N/A,,Overcast,280,2012-11-19 04:15:00
9:35 PM,35.6,28.4,75,29.97,10.0,WNW,4.6,-,N/A,,Overcast,290,2012-11-19 04:35:00
9:55 PM,35.6,26.6,70,29.97,10.0,WNW,4.6,-,N/A,,Mostly Cloudy,300,2012-11-19 04:55:00
10:15 PM,35.6,26.6,70,29.98,10.0,WNW,6.9,-,N/A,,Mostly Cloudy,290,2012-11-19 05:15:00
10:35 PM,35.6,26.6,70,29.98,10.0,WNW,8.1,-,N/A,,Mostly Cloudy,300,2012-11-19 05:35:00
10:55 PM,33.8,24.8,70,29.99,10.0,WNW,4.6,-,N/A,,Mostly Cloudy,300,2012-11-19 05:55:00
11:35 PM,32.0,24.8,75,30.01,10.0,West,9.2,-,N/A,,Partly Cloudy,280,2012-11-19 06:35:00
11:55 PM,30.2,24.8,80,30.01,10.0,WNW,6.9,-,N/A,,Scattered Clouds,290,2012-11-19 06:55:00